createdAt,value
2019-03-05T00:01:53.128Z,1.800000
2019-03-05T00:04:23.509Z,2.200000
2019-03-05T00:06:58.904Z,2.200000
2019-03-05T00:12:09.487Z,1.100000
2019-03-05T00:14:39.861Z,1.900000
2019-03-05T00:17:10.149Z,1.600000
2019-03-05T00:19:40.863Z,1.600000
2019-03-05T00:22:11.328Z,1.600000
2019-03-05T00:24:41.617Z,1.600000
2019-03-05T00:27:14.267Z,1.800000
2019-03-05T00:29:44.689Z,1.800000
2019-03-05T00:32:16.555Z,1.700000
2019-03-05T00:34:47.489Z,1.700000
2019-03-05T00:37:17.961Z,1.400000
2019-03-05T00:39:48.337Z,1.400000
2019-03-05T00:42:18.687Z,2.200000
2019-03-05T00:44:49.192Z,2.200000
2019-03-05T00:47:19.716Z,2.100000
2019-03-05T00:49:50.027Z,2.100000
2019-03-05T00:52:20.476Z,1.700000
2019-03-05T00:57:31.158Z,1.700000
2019-03-05T01:00:01.553Z,1.700000
2019-03-05T01:02:31.897Z,1.200000
2019-03-05T01:05:02.434Z,1.200000
2019-03-05T01:07:32.867Z,1.700000
2019-03-05T01:10:03.391Z,1.700000
2019-03-05T01:12:33.925Z,1.500000
2019-03-05T01:15:04.419Z,1.500000
2019-03-05T01:17:34.733Z,1.100000
2019-03-05T01:20:05.021Z,1.100000
2019-03-05T01:22:35.374Z,0.900000
2019-03-05T01:27:46.109Z,1.500000
2019-03-05T01:30:16.476Z,1.500000
2019-03-05T01:32:51.928Z,1.400000
2019-03-05T01:35:22.494Z,1.400000
2019-03-05T01:37:52.861Z,1.200000
2019-03-05T01:40:23.179Z,1.200000
2019-03-05T01:42:58.532Z,1.300000
2019-03-05T01:45:28.789Z,1.300000
2019-03-05T01:47:59.530Z,1.500000
2019-03-05T01:50:29.838Z,1.500000
2019-03-05T01:53:00.150Z,1.600000
2019-03-05T01:55:30.441Z,1.600000
2019-03-05T01:58:00.850Z,1.300000
2019-03-05T02:00:31.544Z,1.300000
2019-03-05T02:03:01.853Z,1.400000
2019-03-05T02:05:32.160Z,1.400000
2019-03-05T02:08:02.541Z,1.800000
2019-03-05T02:10:33.124Z,1.800000
2019-03-05T02:13:08.658Z,1.500000
2019-03-05T02:15:39.038Z,1.500000
2019-03-05T02:18:09.474Z,1.700000
2019-03-05T02:20:39.828Z,1.700000
2019-03-05T02:23:10.328Z,1.300000
2019-03-05T02:25:40.794Z,1.300000
2019-03-05T02:28:11.111Z,1.500000
2019-03-05T02:30:46.564Z,1.500000
2019-03-05T02:33:16.871Z,1.500000
2019-03-05T02:35:47.395Z,1.500000
2019-03-05T02:38:22.868Z,1.500000
2019-03-05T02:43:33.571Z,1.200000
2019-03-05T02:46:09.015Z,1.200000
2019-03-05T02:51:19.686Z,1.500000
2019-03-05T02:53:50.025Z,1.600000
2019-03-05T02:56:20.389Z,1.600000
2019-03-05T02:58:51.087Z,0.900000
2019-03-05T03:01:21.515Z,0.900000
2019-03-05T03:03:51.925Z,1.400000
2019-03-05T03:09:02.708Z,1.500000
2019-03-05T03:11:38.132Z,1.200000
2019-03-05T03:14:09.430Z,1.200000
2019-03-05T03:16:40.015Z,1.400000
2019-03-05T03:19:10.441Z,1.400000
2019-03-05T03:21:40.762Z,1.300000
2019-03-05T03:24:11.098Z,1.300000
2019-03-05T03:26:41.583Z,1.500000
2019-03-05T03:29:12.149Z,1.500000
2019-03-05T03:31:47.727Z,1.500000
2019-03-05T03:34:18.150Z,1.500000
2019-03-05T03:36:48.653Z,1.400000
2019-03-05T03:39:19.223Z,1.400000
2019-03-05T03:41:49.542Z,1.200000
2019-03-05T03:44:19.980Z,1.200000
2019-03-05T03:46:50.451Z,1.300000
2019-03-05T03:49:20.815Z,1.300000
2019-03-05T03:51:51.501Z,1.100000
2019-03-05T03:54:22.057Z,1.100000
2019-03-05T03:56:57.454Z,1.100000
2019-03-05T03:59:32.945Z,1.100000
2019-03-05T04:02:03.255Z,1.300000
2019-03-05T04:04:33.636Z,1.300000
2019-03-05T04:07:03.944Z,1.100000
2019-03-05T04:09:39.519Z,1.100000
2019-03-05T04:12:09.966Z,1.500000
2019-03-05T04:14:40.347Z,1.500000
2019-03-05T04:17:10.818Z,1.100000
2019-03-05T04:22:21.431Z,1.700000
2019-03-05T04:24:51.871Z,1.700000
2019-03-05T04:27:22.322Z,1.100000
2019-03-05T04:29:52.767Z,1.100000
2019-03-05T04:32:23.989Z,1.100000
2019-03-05T04:34:54.574Z,1.100000
2019-03-05T04:37:25.034Z,1.100000
2019-03-05T04:39:55.405Z,1.100000
2019-03-05T04:42:25.918Z,1.500000
2019-03-05T04:44:56.285Z,1.500000
2019-03-05T04:47:26.668Z,1.200000
2019-03-05T04:49:57.066Z,1.200000
2019-03-05T04:55:07.552Z,0.900000
2019-03-05T04:57:38.016Z,1.500000
2019-03-05T05:00:08.316Z,1.500000
2019-03-05T05:02:38.780Z,1.000000
2019-03-05T05:05:09.061Z,1.000000
2019-03-05T05:07:39.360Z,1.000000
2019-03-05T05:10:11.463Z,1.000000
2019-03-05T05:12:41.842Z,1.200000
2019-03-05T05:15:12.053Z,1.200000
2019-03-05T05:17:42.438Z,1.600000
2019-03-05T05:20:12.786Z,1.600000
2019-03-05T05:22:48.298Z,0.700000
2019-03-05T05:25:18.573Z,0.700000
2019-03-05T05:27:49.040Z,1.400000
2019-03-05T05:30:19.401Z,1.400000
2019-03-05T05:32:49.740Z,1.300000
2019-03-05T05:35:20.147Z,1.300000
2019-03-05T05:37:50.405Z,1.100000
2019-03-05T05:40:20.767Z,1.100000
2019-03-05T05:42:51.282Z,1.000000
2019-03-05T05:45:21.673Z,1.000000
2019-03-05T05:47:52.118Z,1.100000
2019-03-05T05:50:22.584Z,1.100000
2019-03-05T05:52:52.840Z,0.700000
2019-03-05T05:55:23.288Z,0.700000
2019-03-05T05:57:53.680Z,1.200000
2019-03-05T06:00:23.997Z,1.200000
2019-03-05T06:02:54.399Z,1.100000
2019-03-05T06:05:24.666Z,1.100000
2019-03-05T06:07:55.063Z,1.300000
2019-03-05T06:10:25.444Z,1.300000
2019-03-05T06:12:55.783Z,0.700000
2019-03-05T06:15:26.094Z,1.000000
2019-03-05T06:17:56.463Z,1.000000
2019-03-05T06:20:26.797Z,1.200000
2019-03-05T06:22:57.222Z,1.200000
2019-03-05T06:25:27.598Z,1.200000
2019-03-05T06:28:03.200Z,1.200000
2019-03-05T06:30:38.727Z,1.500000
2019-03-05T06:33:09.204Z,1.500000
2019-03-05T06:35:39.645Z,1.300000
2019-03-05T06:38:10.100Z,1.300000
2019-03-05T06:40:46.085Z,1.300000
2019-03-05T06:43:16.656Z,1.300000
2019-03-05T06:45:47.050Z,1.100000
2019-03-05T06:48:17.389Z,1.100000
2019-03-05T06:50:47.942Z,1.200000
2019-03-05T06:53:18.343Z,1.200000
2019-03-05T06:55:48.668Z,0.900000
2019-03-05T06:58:19.104Z,0.900000
2019-03-05T07:00:49.528Z,1.400000
2019-03-05T07:03:19.876Z,1.400000
2019-03-05T07:05:50.479Z,1.400000
2019-03-05T07:08:20.862Z,1.400000
2019-03-05T07:10:51.216Z,1.200000
2019-03-05T07:13:21.569Z,1.200000
2019-03-05T07:15:51.936Z,1.200000
2019-03-05T07:18:23.656Z,1.200000
2019-03-05T07:20:54.179Z,1.200000
2019-03-05T07:23:24.446Z,1.200000
2019-03-05T07:25:54.938Z,1.400000
2019-03-05T07:28:25.211Z,1.400000
2019-03-05T07:30:55.509Z,1.200000
2019-03-05T07:33:25.869Z,1.200000
2019-03-05T07:35:56.196Z,1.200000
2019-03-05T07:38:26.552Z,1.200000
2019-03-05T07:40:56.899Z,1.300000
2019-03-05T07:43:36.189Z,1.300000
2019-03-05T07:46:07.215Z,1.300000
2019-03-05T07:48:37.511Z,1.300000
2019-03-05T07:51:07.970Z,1.400000
2019-03-05T07:53:38.243Z,1.400000
2019-03-05T07:56:08.738Z,1.500000
2019-03-05T07:58:39.012Z,1.500000
2019-03-05T08:01:09.314Z,1.200000
2019-03-05T08:03:39.690Z,1.200000
2019-03-05T08:06:09.989Z,1.800000
2019-03-05T08:08:40.379Z,1.800000
2019-03-05T08:11:10.757Z,1.400000
2019-03-05T08:13:41.041Z,1.400000
2019-03-05T08:16:11.341Z,1.300000
2019-03-05T08:18:41.717Z,1.300000
2019-03-05T08:21:12.021Z,1.100000
2019-03-05T08:23:42.436Z,1.100000
2019-03-05T08:26:12.740Z,1.300000
2019-03-05T08:28:43.057Z,1.300000
2019-03-05T08:31:13.573Z,1.300000
2019-03-05T08:33:43.917Z,1.300000
2019-03-05T08:36:14.241Z,1.400000
2019-03-05T08:38:44.573Z,1.400000
2019-03-05T08:41:14.945Z,1.000000
2019-03-05T08:43:45.318Z,1.000000
2019-03-05T08:46:15.664Z,0.900000
2019-03-05T08:48:45.953Z,0.900000
2019-03-05T08:51:16.334Z,1.100000
2019-03-05T08:53:49.753Z,1.100000
2019-03-05T08:56:20.467Z,1.700000
2019-03-05T08:58:50.760Z,1.700000
2019-03-05T09:01:21.236Z,1.600000
2019-03-05T09:03:51.582Z,1.600000
2019-03-05T09:06:21.931Z,1.200000
2019-03-05T09:08:52.285Z,1.200000
2019-03-05T09:11:22.711Z,1.100000
2019-03-05T09:13:53.082Z,1.100000
2019-03-05T09:16:23.405Z,1.100000
2019-03-05T09:18:53.634Z,1.100000
2019-03-05T09:21:23.941Z,1.100000
2019-03-05T09:23:54.273Z,1.100000
2019-03-05T09:26:24.660Z,1.300000
2019-03-05T09:28:54.956Z,1.300000
2019-03-05T09:31:25.318Z,1.500000
2019-03-05T09:33:55.582Z,1.500000
2019-03-05T09:36:26.027Z,1.000000
2019-03-05T09:38:56.466Z,1.000000
2019-03-05T09:41:26.811Z,1.000000
2019-03-05T09:43:57.178Z,1.000000
2019-03-05T09:46:27.645Z,1.200000
2019-03-05T09:48:58.048Z,1.200000
2019-03-05T09:51:28.300Z,1.100000
2019-03-05T09:53:58.725Z,1.100000
2019-03-05T09:56:29.057Z,1.300000
2019-03-05T09:58:59.345Z,1.300000
2019-03-05T10:01:29.680Z,1.100000
2019-03-05T10:04:00.106Z,1.100000
2019-03-05T10:06:30.425Z,1.100000
2019-03-05T10:09:00.806Z,1.100000
2019-03-05T10:11:31.076Z,1.100000
2019-03-05T10:14:01.304Z,1.100000
2019-03-05T10:16:31.662Z,1.200000
2019-03-05T10:19:02.020Z,1.200000
2019-03-05T10:21:32.572Z,1.600000
2019-03-05T10:24:10.574Z,1.600000
2019-03-05T10:26:41.477Z,1.100000
2019-03-05T10:29:11.861Z,1.100000
2019-03-05T10:31:42.145Z,1.000000
2019-03-05T10:34:12.536Z,1.000000
2019-03-05T10:36:42.835Z,0.900000
2019-03-05T10:39:13.256Z,0.900000
2019-03-05T10:41:43.644Z,1.500000
2019-03-05T10:44:13.973Z,1.500000
2019-03-05T10:46:44.263Z,1.100000
2019-03-05T10:49:14.514Z,1.100000
2019-03-05T10:51:44.746Z,1.100000
2019-03-05T10:54:15.067Z,1.300000
2019-03-05T10:56:45.401Z,1.300000
2019-03-05T10:59:15.744Z,1.000000
2019-03-05T11:01:46.098Z,1.000000
2019-03-05T11:04:16.446Z,0.900000
2019-03-05T11:06:46.909Z,0.900000
2019-03-05T11:09:17.250Z,1.100000
2019-03-05T11:11:47.609Z,1.100000
2019-03-05T11:14:17.883Z,1.600000
2019-03-05T11:16:49.955Z,1.600000
2019-03-05T11:19:20.407Z,0.900000
2019-03-05T11:21:55.886Z,0.900000
2019-03-05T11:24:26.198Z,1.300000
2019-03-05T11:26:56.540Z,1.300000
2019-03-05T11:29:26.897Z,1.000000
2019-03-05T11:31:57.133Z,1.000000
2019-03-05T11:34:27.359Z,1.300000
2019-03-05T11:36:57.694Z,1.300000
2019-03-05T11:39:28.048Z,1.000000
2019-03-05T11:41:58.302Z,1.000000
2019-03-05T11:44:28.710Z,1.400000
2019-03-05T11:46:58.979Z,1.400000
2019-03-05T11:49:29.462Z,1.100000
2019-03-05T11:51:59.770Z,1.100000
2019-03-05T11:54:30.210Z,1.100000
2019-03-05T11:57:01.631Z,1.100000
2019-03-05T11:59:32.101Z,1.200000
2019-03-05T12:02:02.431Z,1.200000
2019-03-05T12:04:32.893Z,0.700000
2019-03-05T12:07:03.184Z,0.700000
2019-03-05T12:09:33.507Z,0.900000
2019-03-05T12:12:03.972Z,0.900000
2019-03-05T12:14:34.217Z,1.100000
2019-03-05T12:17:04.617Z,1.100000
2019-03-05T12:19:34.914Z,1.200000
2019-03-05T12:22:05.259Z,1.200000
2019-03-05T12:24:35.615Z,0.900000
2019-03-05T12:27:06.214Z,0.900000
2019-03-05T12:29:36.566Z,1.100000
2019-03-05T12:32:07.055Z,1.100000
2019-03-05T12:34:37.432Z,0.900000
2019-03-05T12:37:07.800Z,0.900000
2019-03-05T12:39:38.073Z,1.100000
2019-03-05T12:42:08.542Z,1.100000
2019-03-05T12:44:39.012Z,0.900000
2019-03-05T12:47:09.371Z,0.900000
2019-03-05T12:49:39.736Z,1.200000
2019-03-05T12:52:10.129Z,1.200000
2019-03-05T12:54:40.491Z,0.900000
2019-03-05T12:57:10.855Z,0.900000
2019-03-05T12:59:41.227Z,1.200000
2019-03-05T13:02:11.701Z,1.200000
2019-03-05T13:04:42.082Z,1.200000
2019-03-05T13:07:14.139Z,1.200000
2019-03-05T13:09:47.806Z,0.900000
2019-03-05T13:12:18.239Z,0.900000
2019-03-05T13:14:48.574Z,0.800000
2019-03-05T13:17:18.876Z,0.800000
2019-03-05T13:19:49.251Z,0.800000
2019-03-05T13:22:19.521Z,0.800000
2019-03-05T13:24:50.449Z,0.400000
2019-03-05T13:27:22.821Z,0.400000
2019-03-05T13:29:53.963Z,0.700000
2019-03-05T13:32:24.561Z,0.700000
2019-03-05T13:34:54.935Z,0.700000
2019-03-05T13:37:28.451Z,0.700000
2019-03-05T13:39:59.977Z,0.800000
2019-03-05T13:42:33.410Z,0.800000
2019-03-05T13:45:08.694Z,0.700000
2019-03-05T13:47:41.736Z,0.700000
2019-03-05T13:50:13.311Z,0.800000
2019-03-05T13:52:43.679Z,0.800000
2019-03-05T13:55:13.949Z,0.500000
2019-03-05T13:57:44.218Z,0.500000
2019-03-05T14:00:14.568Z,0.900000
2019-03-05T14:02:52.769Z,0.900000
2019-03-05T14:05:24.550Z,0.600000
2019-03-05T14:07:55.105Z,0.600000
2019-03-05T14:10:26.329Z,0.800000
2019-03-05T14:12:57.090Z,0.800000
2019-03-05T14:15:27.466Z,1.000000
2019-03-05T14:17:57.869Z,1.000000
2019-03-05T14:20:31.710Z,1.100000
2019-03-05T14:23:04.444Z,1.100000
2019-03-05T14:25:34.769Z,1.300000
2019-03-05T14:28:05.157Z,1.300000
2019-03-05T14:30:35.591Z,1.000000
2019-03-05T14:33:05.915Z,1.000000
2019-03-05T14:35:36.253Z,0.700000
2019-03-05T14:38:06.591Z,0.700000
2019-03-05T14:40:38.011Z,0.700000
2019-03-05T14:43:08.439Z,0.700000
2019-03-05T14:45:38.844Z,1.000000
2019-03-05T14:48:09.287Z,1.000000
2019-03-05T14:50:39.726Z,1.100000
2019-03-05T14:53:10.149Z,1.100000
2019-03-05T14:55:40.541Z,0.900000
2019-03-05T14:58:11.013Z,0.900000
2019-03-05T15:00:41.311Z,0.900000
2019-03-05T15:03:11.652Z,0.900000
2019-03-05T15:05:42.091Z,0.800000
2019-03-05T15:08:12.523Z,0.800000
2019-03-05T15:10:47.877Z,0.900000
2019-03-05T15:13:20.080Z,0.900000
2019-03-05T15:15:50.683Z,0.900000
2019-03-05T15:18:21.083Z,0.900000
2019-03-05T15:20:51.445Z,0.800000
2019-03-05T15:23:22.009Z,0.800000
2019-03-05T15:25:52.379Z,0.900000
2019-03-05T15:28:22.887Z,0.900000
2019-03-05T15:30:53.194Z,0.700000
2019-03-05T15:33:23.530Z,0.700000
2019-03-05T15:35:53.946Z,0.700000
2019-03-05T15:38:24.434Z,0.800000
2019-03-05T15:40:54.805Z,0.800000
2019-03-05T15:43:25.234Z,0.900000
2019-03-05T15:45:55.545Z,0.900000
2019-03-05T15:48:25.852Z,1.600000
2019-03-05T15:50:56.289Z,1.600000
2019-03-05T15:53:27.730Z,1.100000
2019-03-05T15:55:58.164Z,1.100000
2019-03-05T15:58:28.502Z,1.100000
2019-03-05T16:00:58.788Z,1.100000
2019-03-05T16:03:29.265Z,0.800000
2019-03-05T16:05:59.557Z,0.800000
2019-03-05T16:08:32.443Z,0.800000
2019-03-05T16:11:03.004Z,0.800000
2019-03-05T16:13:33.454Z,1.300000
2019-03-05T16:16:03.838Z,1.300000
2019-03-05T16:18:34.171Z,2.000000
2019-03-05T16:21:06.886Z,2.000000
2019-03-05T16:23:37.575Z,1.100000
2019-03-05T16:26:07.934Z,1.100000
2019-03-05T16:28:39.261Z,0.900000
2019-03-05T16:31:13.534Z,0.900000
2019-03-05T16:33:45.738Z,1.000000
2019-03-05T16:36:16.232Z,1.000000
2019-03-05T16:38:46.674Z,0.900000
2019-03-05T16:41:20.347Z,0.900000
2019-03-05T16:43:51.139Z,1.100000
2019-03-05T16:46:21.462Z,1.100000
2019-03-05T16:48:51.903Z,1.000000
2019-03-05T16:51:22.429Z,1.000000
2019-03-05T16:53:52.878Z,0.800000
2019-03-05T16:56:23.387Z,0.800000
2019-03-05T16:58:54.016Z,0.900000
2019-03-05T17:01:24.437Z,0.900000
2019-03-05T17:03:54.880Z,1.200000
2019-03-05T17:06:25.260Z,1.200000
2019-03-05T17:08:55.552Z,1.100000
2019-03-05T17:11:25.978Z,1.100000
2019-03-05T17:13:56.356Z,1.100000
2019-03-05T17:16:26.858Z,1.100000
2019-03-05T17:18:57.163Z,0.800000
2019-03-05T17:21:27.992Z,0.800000
2019-03-05T17:23:58.445Z,0.900000
2019-03-05T17:26:28.845Z,0.900000
2019-03-05T17:28:59.248Z,1.000000
2019-03-05T17:31:29.600Z,1.000000
2019-03-05T17:33:59.901Z,1.500000
2019-03-05T17:36:30.319Z,1.500000
2019-03-05T17:39:00.644Z,1.000000
2019-03-05T17:41:31.319Z,1.000000
2019-03-05T17:44:06.791Z,1.100000
2019-03-05T17:46:37.106Z,1.100000
2019-03-05T17:49:07.955Z,1.200000
2019-03-05T17:51:38.356Z,1.200000
2019-03-05T17:54:08.843Z,1.200000
2019-03-05T17:56:39.214Z,1.200000
2019-03-05T17:59:09.873Z,1.000000
2019-03-05T18:01:40.435Z,1.000000
2019-03-05T18:04:10.693Z,1.100000
2019-03-05T18:06:41.251Z,1.100000
2019-03-05T18:09:11.722Z,1.400000
2019-03-05T18:11:42.105Z,1.400000
2019-03-05T18:14:12.596Z,1.500000
2019-03-05T18:16:43.063Z,1.500000
2019-03-05T18:19:13.461Z,1.200000
2019-03-05T18:21:44.012Z,1.200000
2019-03-05T18:24:14.428Z,1.400000
2019-03-05T18:26:44.986Z,1.400000
2019-03-05T18:29:15.441Z,1.200000
2019-03-05T18:31:45.778Z,1.200000
2019-03-05T18:34:16.139Z,0.900000
2019-03-05T18:36:46.595Z,0.900000
2019-03-05T18:39:17.129Z,1.200000
2019-03-05T18:41:47.571Z,1.200000
2019-03-05T18:44:18.109Z,1.100000
2019-03-05T18:46:48.681Z,1.100000
2019-03-05T18:49:19.096Z,1.400000
2019-03-05T18:51:49.646Z,1.400000
2019-03-05T18:54:19.981Z,1.000000
2019-03-05T18:56:50.331Z,1.000000
2019-03-05T18:59:20.886Z,0.800000
2019-03-05T19:01:51.239Z,0.800000
2019-03-05T19:04:21.563Z,1.300000
2019-03-05T19:06:52.023Z,1.300000
2019-03-05T19:09:22.364Z,1.400000
2019-03-05T19:11:52.621Z,1.400000
2019-03-05T19:14:22.994Z,1.400000
2019-03-05T19:16:53.576Z,1.400000
2019-03-05T19:19:24.138Z,1.400000
2019-03-05T19:21:54.444Z,1.400000
2019-03-05T19:24:24.881Z,1.500000
2019-03-05T19:26:55.319Z,1.500000
2019-03-05T19:29:25.765Z,1.400000
2019-03-05T19:31:56.094Z,1.400000
2019-03-05T19:34:26.511Z,1.100000
2019-03-05T19:36:56.820Z,1.100000
2019-03-05T19:39:27.527Z,1.200000
2019-03-05T19:41:58.116Z,1.200000
2019-03-05T19:44:29.049Z,1.200000
2019-03-05T19:46:59.627Z,1.200000
2019-03-05T19:49:30.033Z,1.000000
2019-03-05T19:52:00.420Z,1.000000
2019-03-05T19:54:30.906Z,1.200000
2019-03-05T19:57:01.321Z,1.200000
2019-03-05T19:59:31.761Z,1.400000
2019-03-05T20:02:02.367Z,1.400000
2019-03-05T20:04:32.706Z,1.000000
2019-03-05T20:07:03.232Z,1.000000
2019-03-05T20:09:33.541Z,1.400000
2019-03-05T20:12:03.880Z,1.400000
2019-03-05T20:14:34.332Z,0.900000
2019-03-05T20:17:04.741Z,0.900000
2019-03-05T20:19:35.219Z,1.100000
2019-03-05T20:22:05.582Z,1.100000
2019-03-05T20:24:36.002Z,1.800000
2019-03-05T20:27:15.695Z,1.800000
2019-03-05T20:29:46.614Z,1.300000
2019-03-05T20:32:16.978Z,1.100000
2019-03-05T20:34:47.332Z,1.100000
2019-03-05T20:37:17.697Z,1.300000
2019-03-05T20:39:48.021Z,1.300000
2019-03-05T20:42:18.544Z,1.200000
2019-03-05T20:44:48.865Z,1.200000
2019-03-05T20:47:19.278Z,1.700000
2019-03-05T20:49:49.685Z,1.700000
2019-03-05T20:52:20.126Z,1.500000
2019-03-05T20:54:50.542Z,1.500000
2019-03-05T20:57:21.038Z,1.600000
2019-03-05T20:59:51.464Z,1.600000
2019-03-05T21:02:21.763Z,1.100000
2019-03-05T21:04:52.208Z,1.100000
2019-03-05T21:07:22.698Z,1.500000
2019-03-05T21:09:53.122Z,1.500000
2019-03-05T21:12:23.439Z,1.500000
2019-03-05T21:14:53.711Z,1.500000
2019-03-05T21:17:24.220Z,1.600000
2019-03-05T21:19:54.822Z,1.600000
2019-03-05T21:22:25.220Z,1.400000
2019-03-05T21:24:55.618Z,1.400000
2019-03-05T21:27:25.907Z,1.000000
2019-03-05T21:29:56.313Z,1.000000
2019-03-05T21:32:26.812Z,1.600000
2019-03-05T21:34:57.226Z,1.600000
2019-03-05T21:37:27.520Z,1.600000
2019-03-05T21:39:57.834Z,1.600000
2019-03-05T21:42:28.349Z,1.600000
2019-03-05T21:44:58.660Z,1.600000
2019-03-05T21:47:28.977Z,1.600000
2019-03-05T21:49:59.449Z,1.600000
2019-03-05T21:52:29.744Z,1.900000
2019-03-05T21:55:00.049Z,1.900000
2019-03-05T21:57:30.477Z,2.500000
2019-03-05T22:00:00.834Z,2.500000
2019-03-05T22:02:31.259Z,1.600000
2019-03-05T22:05:01.622Z,1.600000
2019-03-05T22:07:31.929Z,1.800000
2019-03-05T22:10:02.417Z,1.800000
2019-03-05T22:12:32.799Z,2.300000
2019-03-05T22:15:03.468Z,2.300000
2019-03-05T22:17:33.800Z,2.500000
2019-03-05T22:20:04.367Z,2.500000
2019-03-05T22:22:34.764Z,2.600000
2019-03-05T22:25:05.147Z,2.600000
2019-03-05T22:27:35.569Z,2.100000
2019-03-05T22:30:05.917Z,2.100000
2019-03-05T22:32:36.413Z,2.000000
2019-03-05T22:35:06.831Z,2.000000
2019-03-05T22:37:37.183Z,2.300000
2019-03-05T22:40:07.468Z,2.300000
2019-03-05T22:42:37.855Z,2.000000
2019-03-05T22:45:08.233Z,2.000000
2019-03-05T22:47:38.635Z,2.200000
2019-03-05T22:50:09.004Z,2.200000
2019-03-05T22:52:39.390Z,2.300000
2019-03-05T22:55:09.851Z,2.300000
2019-03-05T22:57:40.202Z,2.700000
2019-03-05T23:00:10.562Z,2.700000
2019-03-05T23:02:40.835Z,3.100000
2019-03-05T23:05:11.245Z,3.100000
2019-03-05T23:07:41.586Z,2.600000
2019-03-05T23:10:12.060Z,2.600000
2019-03-05T23:12:42.447Z,2.700000
2019-03-05T23:15:12.825Z,2.700000
2019-03-05T23:17:43.177Z,2.900000
2019-03-05T23:20:13.570Z,2.900000
2019-03-05T23:22:49.162Z,3.100000
2019-03-05T23:25:19.494Z,3.100000
2019-03-05T23:27:49.911Z,2.600000
2019-03-05T23:30:20.447Z,2.600000
2019-03-05T23:32:50.751Z,2.900000
2019-03-05T23:35:21.339Z,2.900000
2019-03-05T23:37:51.533Z,2.700000
2019-03-05T23:40:21.912Z,2.700000
2019-03-05T23:42:52.282Z,3.100000
2019-03-05T23:45:22.879Z,3.100000
2019-03-05T23:47:53.368Z,2.700000
2019-03-05T23:50:23.728Z,2.700000
2019-03-05T23:52:53.992Z,2.700000
2019-03-05T23:55:24.384Z,2.700000
2019-03-05T23:57:54.723Z,3.100000
